sensor_id;sensor_type;location;lat;lon;timestamp;P1;durP1;ratioP1;P2;durP2;ratioP2
8042;SDS011;4064;48.132;11.366;2023-05-29T00:00:57;11.80;;;6.90;;
8042;SDS011;4064;48.132;11.366;2023-05-29T00:03:24;8.90;;;6.40;;
8042;SDS011;4064;48.132;11.366;2023-05-29T00:05:50;11.07;;;6.23;;
8042;SDS011;4064;48.132;11.366;2023-05-29T00:08:17;8.70;;;7.80;;
8042;SDS011;4064;48.132;11.366;2023-05-29T00:10:43;10.17;;;7.17;;
8042;SDS011;4064;48.132;11.366;2023-05-29T00:13:09;8.43;;;6.70;;
8042;SDS011;4064;48.132;11.366;2023-05-29T00:15:35;8.60;;;6.30;;
8042;SDS011;4064;48.132;11.366;2023-05-29T00:18:01;13.00;;;6.97;;
8042;SDS011;4064;48.132;11.366;2023-05-29T00:20:27;10.57;;;7.63;;
8042;SDS011;4064;48.132;11.366;2023-05-29T00:22:53;8.20;;;6.53;;
8042;SDS011;4064;48.132;11.366;2023-05-29T00:25:19;9.20;;;6.37;;
8042;SDS011;4064;48.132;11.366;2023-05-29T00:27:44;9.63;;;6.47;;
8042;SDS011;4064;48.132;11.366;2023-05-29T00:30:10;7.83;;;6.60;;
8042;SDS011;4064;48.132;11.366;2023-05-29T00:32:36;12.27;;;9.63;;
8042;SDS011;4064;48.132;11.366;2023-05-29T00:35:02;9.27;;;7.00;;
8042;SDS011;4064;48.132;11.366;2023-05-29T00:37:29;8.20;;;6.37;;
8042;SDS011;4064;48.132;11.366;2023-05-29T00:39:54;8.57;;;6.40;;
8042;SDS011;4064;48.132;11.366;2023-05-29T00:42:21;7.57;;;6.73;;
8042;SDS011;4064;48.132;11.366;2023-05-29T00:44:47;12.93;;;6.07;;
8042;SDS011;4064;48.132;11.366;2023-05-29T00:47:13;9.20;;;6.03;;
8042;SDS011;4064;48.132;11.366;2023-05-29T00:49:40;12.03;;;7.07;;
8042;SDS011;4064;48.132;11.366;2023-05-29T00:52:07;8.70;;;6.47;;
8042;SDS011;4064;48.132;11.366;2023-05-29T00:54:35;12.40;;;6.57;;
8042;SDS011;4064;48.132;11.366;2023-05-29T00:57:02;7.87;;;5.60;;
8042;SDS011;4064;48.132;11.366;2023-05-29T00:59:31;11.20;;;6.67;;
8042;SDS011;4064;48.132;11.366;2023-05-29T01:01:59;9.53;;;7.23;;
8042;SDS011;4064;48.132;11.366;2023-05-29T01:04:27;8.67;;;6.43;;
8042;SDS011;4064;48.132;11.366;2023-05-29T01:06:53;12.87;;;6.93;;
8042;SDS011;4064;48.132;11.366;2023-05-29T01:09:18;12.80;;;6.37;;
8042;SDS011;4064;48.132;11.366;2023-05-29T01:12:03;9.07;;;6.60;;
8042;SDS011;4064;48.132;11.366;2023-05-29T01:17:17;11.80;;;6.00;;
8042;SDS011;4064;48.132;11.366;2023-05-29T01:20:06;7.63;;;5.53;;
8042;SDS011;4064;48.132;11.366;2023-05-29T01:27:54;10.40;;;6.80;;
8042;SDS011;4064;48.132;11.366;2023-05-29T01:30:25;11.43;;;7.23;;
8042;SDS011;4064;48.132;11.366;2023-05-29T01:32:53;8.97;;;6.40;;
8042;SDS011;4064;48.132;11.366;2023-05-29T01:35:20;9.40;;;7.10;;
8042;SDS011;4064;48.132;11.366;2023-05-29T01:37:45;9.50;;;6.90;;
8042;SDS011;4064;48.132;11.366;2023-05-29T01:40:12;10.70;;;7.23;;
8042;SDS011;4064;48.132;11.366;2023-05-29T01:42:39;7.80;;;6.13;;
8042;SDS011;4064;48.132;11.366;2023-05-29T01:45:05;9.80;;;6.03;;
8042;SDS011;4064;48.132;11.366;2023-05-29T01:47:31;10.03;;;6.80;;
8042;SDS011;4064;48.132;11.366;2023-05-29T01:49:59;9.47;;;6.50;;
8042;SDS011;4064;48.132;11.366;2023-05-29T01:52:28;11.77;;;7.03;;
8042;SDS011;4064;48.132;11.366;2023-05-29T01:54:54;10.93;;;7.10;;
8042;SDS011;4064;48.132;11.366;2023-05-29T01:57:20;8.63;;;6.73;;
8042;SDS011;4064;48.132;11.366;2023-05-29T01:59:46;11.03;;;6.90;;
8042;SDS011;4064;48.132;11.366;2023-05-29T02:02:15;11.47;;;6.90;;
8042;SDS011;4064;48.132;11.366;2023-05-29T02:04:40;10.70;;;6.60;;
8042;SDS011;4064;48.132;11.366;2023-05-29T02:07:06;9.20;;;6.00;;
8042;SDS011;4064;48.132;11.366;2023-05-29T02:09:33;9.70;;;6.70;;
8042;SDS011;4064;48.132;11.366;2023-05-29T02:12:01;10.70;;;6.80;;
8042;SDS011;4064;48.132;11.366;2023-05-29T02:14:27;7.17;;;5.47;;
8042;SDS011;4064;48.132;11.366;2023-05-29T02:16:54;11.63;;;6.30;;
8042;SDS011;4064;48.132;11.366;2023-05-29T02:19:19;9.10;;;6.43;;
8042;SDS011;4064;48.132;11.366;2023-05-29T02:21:46;7.97;;;6.90;;
8042;SDS011;4064;48.132;11.366;2023-05-29T02:24:13;8.50;;;6.70;;
8042;SDS011;4064;48.132;11.366;2023-05-29T02:26:39;9.27;;;6.60;;
8042;SDS011;4064;48.132;11.366;2023-05-29T02:29:05;12.07;;;6.70;;
8042;SDS011;4064;48.132;11.366;2023-05-29T02:31:31;7.83;;;5.97;;
8042;SDS011;4064;48.132;11.366;2023-05-29T02:33:57;9.97;;;7.43;;
8042;SDS011;4064;48.132;11.366;2023-05-29T02:36:24;9.13;;;6.23;;
8042;SDS011;4064;48.132;11.366;2023-05-29T02:38:50;9.20;;;7.27;;
8042;SDS011;4064;48.132;11.366;2023-05-29T02:41:16;10.10;;;7.23;;
8042;SDS011;4064;48.132;11.366;2023-05-29T02:43:42;8.37;;;6.67;;
8042;SDS011;4064;48.132;11.366;2023-05-29T02:46:08;8.67;;;6.67;;
8042;SDS011;4064;48.132;11.366;2023-05-29T02:48:33;10.13;;;6.40;;
8042;SDS011;4064;48.132;11.366;2023-05-29T02:50:59;11.30;;;6.47;;
8042;SDS011;4064;48.132;11.366;2023-05-29T02:53:25;10.40;;;7.03;;
8042;SDS011;4064;48.132;11.366;2023-05-29T02:55:51;6.73;;;5.77;;
8042;SDS011;4064;48.132;11.366;2023-05-29T02:58:17;9.13;;;5.83;;
8042;SDS011;4064;48.132;11.366;2023-05-29T03:00:46;15.47;;;7.10;;
8042;SDS011;4064;48.132;11.366;2023-05-29T03:03:12;8.77;;;6.77;;
8042;SDS011;4064;48.132;11.366;2023-05-29T03:05:38;10.17;;;5.80;;
8042;SDS011;4064;48.132;11.366;2023-05-29T03:08:04;10.93;;;5.60;;
8042;SDS011;4064;48.132;11.366;2023-05-29T03:10:30;9.90;;;6.83;;
8042;SDS011;4064;48.132;11.366;2023-05-29T03:12:56;9.53;;;6.90;;
8042;SDS011;4064;48.132;11.366;2023-05-29T03:15:22;9.67;;;6.70;;
8042;SDS011;4064;48.132;11.366;2023-05-29T03:17:48;9.83;;;7.33;;
8042;SDS011;4064;48.132;11.366;2023-05-29T03:20:13;7.20;;;5.60;;
8042;SDS011;4064;48.132;11.366;2023-05-29T03:22:40;8.23;;;5.37;;
8042;SDS011;4064;48.132;11.366;2023-05-29T03:25:07;8.40;;;6.23;;
8042;SDS011;4064;48.132;11.366;2023-05-29T03:27:34;8.80;;;5.43;;
8042;SDS011;4064;48.132;11.366;2023-05-29T03:30:00;7.77;;;6.10;;
8042;SDS011;4064;48.132;11.366;2023-05-29T03:32:27;8.27;;;7.27;;
8042;SDS011;4064;48.132;11.366;2023-05-29T03:34:53;9.50;;;5.93;;
8042;SDS011;4064;48.132;11.366;2023-05-29T03:37:20;10.60;;;6.80;;
8042;SDS011;4064;48.132;11.366;2023-05-29T03:39:46;10.60;;;6.87;;
8042;SDS011;4064;48.132;11.366;2023-05-29T03:42:12;7.67;;;6.10;;
8042;SDS011;4064;48.132;11.366;2023-05-29T03:44:39;7.30;;;5.73;;
8042;SDS011;4064;48.132;11.366;2023-05-29T03:47:06;9.60;;;6.13;;
8042;SDS011;4064;48.132;11.366;2023-05-29T03:49:34;12.03;;;6.50;;
8042;SDS011;4064;48.132;11.366;2023-05-29T03:51:59;8.90;;;6.50;;
8042;SDS011;4064;48.132;11.366;2023-05-29T03:54:25;9.43;;;7.10;;
8042;SDS011;4064;48.132;11.366;2023-05-29T03:56:51;9.27;;;6.60;;
8042;SDS011;4064;48.132;11.366;2023-05-29T03:59:17;9.40;;;7.10;;
8042;SDS011;4064;48.132;11.366;2023-05-29T04:01:43;8.93;;;6.33;;
8042;SDS011;4064;48.132;11.366;2023-05-29T04:04:08;10.77;;;6.37;;
8042;SDS011;4064;48.132;11.366;2023-05-29T04:06:34;8.37;;;6.57;;
8042;SDS011;4064;48.132;11.366;2023-05-29T04:09:04;7.57;;;6.50;;
8042;SDS011;4064;48.132;11.366;2023-05-29T04:11:32;8.70;;;6.10;;
8042;SDS011;4064;48.132;11.366;2023-05-29T04:13:59;11.00;;;7.07;;
8042;SDS011;4064;48.132;11.366;2023-05-29T04:16:26;10.70;;;7.77;;
8042;SDS011;4064;48.132;11.366;2023-05-29T04:18:53;11.27;;;6.53;;
8042;SDS011;4064;48.132;11.366;2023-05-29T04:21:19;7.60;;;6.23;;
8042;SDS011;4064;48.132;11.366;2023-05-29T04:23:45;11.10;;;7.17;;
8042;SDS011;4064;48.132;11.366;2023-05-29T04:26:11;10.13;;;7.00;;
8042;SDS011;4064;48.132;11.366;2023-05-29T04:28:38;7.90;;;6.07;;
8042;SDS011;4064;48.132;11.366;2023-05-29T04:31:04;9.93;;;7.03;;
8042;SDS011;4064;48.132;11.366;2023-05-29T04:33:31;8.57;;;6.43;;
8042;SDS011;4064;48.132;11.366;2023-05-29T04:35:58;9.13;;;6.60;;
8042;SDS011;4064;48.132;11.366;2023-05-29T04:38:26;7.57;;;6.03;;
8042;SDS011;4064;48.132;11.366;2023-05-29T04:40:52;11.03;;;6.73;;
8042;SDS011;4064;48.132;11.366;2023-05-29T04:43:22;9.63;;;7.03;;
8042;SDS011;4064;48.132;11.366;2023-05-29T04:45:51;8.60;;;6.47;;
8042;SDS011;4064;48.132;11.366;2023-05-29T04:48:18;11.20;;;7.57;;
8042;SDS011;4064;48.132;11.366;2023-05-29T04:50:44;8.20;;;5.73;;
8042;SDS011;4064;48.132;11.366;2023-05-29T04:53:10;14.80;;;7.90;;
8042;SDS011;4064;48.132;11.366;2023-05-29T04:55:36;9.33;;;6.33;;
8042;SDS011;4064;48.132;11.366;2023-05-29T04:58:02;8.97;;;6.00;;
8042;SDS011;4064;48.132;11.366;2023-05-29T05:00:28;11.70;;;7.67;;
8042;SDS011;4064;48.132;11.366;2023-05-29T05:02:53;10.40;;;7.77;;
8042;SDS011;4064;48.132;11.366;2023-05-29T05:05:20;9.73;;;7.43;;
8042;SDS011;4064;48.132;11.366;2023-05-29T05:07:46;11.30;;;7.73;;
8042;SDS011;4064;48.132;11.366;2023-05-29T05:10:12;9.80;;;8.73;;
8042;SDS011;4064;48.132;11.366;2023-05-29T05:12:38;10.10;;;7.50;;
8042;SDS011;4064;48.132;11.366;2023-05-29T05:15:04;16.30;;;8.57;;
8042;SDS011;4064;48.132;11.366;2023-05-29T05:17:32;10.73;;;7.47;;
8042;SDS011;4064;48.132;11.366;2023-05-29T05:19:58;10.67;;;7.80;;
8042;SDS011;4064;48.132;11.366;2023-05-29T05:22:28;10.17;;;7.10;;
8042;SDS011;4064;48.132;11.366;2023-05-29T05:24:54;13.53;;;8.80;;
8042;SDS011;4064;48.132;11.366;2023-05-29T05:27:20;13.07;;;7.93;;
8042;SDS011;4064;48.132;11.366;2023-05-29T05:29:46;9.43;;;7.43;;
8042;SDS011;4064;48.132;11.366;2023-05-29T05:32:12;11.10;;;8.03;;
8042;SDS011;4064;48.132;11.366;2023-05-29T05:34:38;11.53;;;7.47;;
8042;SDS011;4064;48.132;11.366;2023-05-29T05:37:03;12.20;;;8.47;;
8042;SDS011;4064;48.132;11.366;2023-05-29T05:39:29;13.50;;;7.50;;
8042;SDS011;4064;48.132;11.366;2023-05-29T05:41:55;12.33;;;7.37;;
8042;SDS011;4064;48.132;11.366;2023-05-29T05:44:20;11.43;;;7.63;;
8042;SDS011;4064;48.132;11.366;2023-05-29T05:46:46;13.57;;;8.30;;
8042;SDS011;4064;48.132;11.366;2023-05-29T05:49:12;12.27;;;7.47;;
8042;SDS011;4064;48.132;11.366;2023-05-29T05:51:38;11.40;;;7.90;;
8042;SDS011;4064;48.132;11.366;2023-05-29T05:54:04;11.60;;;8.10;;
8042;SDS011;4064;48.132;11.366;2023-05-29T05:56:30;12.77;;;7.77;;
8042;SDS011;4064;48.132;11.366;2023-05-29T05:58:56;11.50;;;7.77;;
8042;SDS011;4064;48.132;11.366;2023-05-29T06:01:22;10.73;;;8.00;;
8042;SDS011;4064;48.132;11.366;2023-05-29T06:03:48;12.97;;;8.57;;
8042;SDS011;4064;48.132;11.366;2023-05-29T06:06:14;10.43;;;7.27;;
8042;SDS011;4064;48.132;11.366;2023-05-29T06:08:42;11.80;;;7.87;;
8042;SDS011;4064;48.132;11.366;2023-05-29T06:11:08;9.17;;;7.83;;
8042;SDS011;4064;48.132;11.366;2023-05-29T06:13:34;11.90;;;7.83;;
8042;SDS011;4064;48.132;11.366;2023-05-29T06:16:00;11.00;;;7.13;;
8042;SDS011;4064;48.132;11.366;2023-05-29T06:18:26;10.47;;;7.20;;
8042;SDS011;4064;48.132;11.366;2023-05-29T06:20:52;11.53;;;7.20;;
8042;SDS011;4064;48.132;11.366;2023-05-29T06:23:17;12.80;;;7.67;;
8042;SDS011;4064;48.132;11.366;2023-05-29T06:25:43;8.13;;;6.87;;
8042;SDS011;4064;48.132;11.366;2023-05-29T06:28:09;12.00;;;7.07;;
8042;SDS011;4064;48.132;11.366;2023-05-29T06:30:35;7.93;;;5.97;;
8042;SDS011;4064;48.132;11.366;2023-05-29T06:33:01;9.63;;;8.07;;
8042;SDS011;4064;48.132;11.366;2023-05-29T06:35:26;9.63;;;7.63;;
8042;SDS011;4064;48.132;11.366;2023-05-29T06:37:53;8.30;;;7.40;;
8042;SDS011;4064;48.132;11.366;2023-05-29T06:40:18;9.80;;;6.40;;
8042;SDS011;4064;48.132;11.366;2023-05-29T06:42:45;8.50;;;6.50;;
8042;SDS011;4064;48.132;11.366;2023-05-29T06:45:11;10.37;;;7.00;;
8042;SDS011;4064;48.132;11.366;2023-05-29T06:47:38;7.97;;;6.60;;
8042;SDS011;4064;48.132;11.366;2023-05-29T06:50:05;12.93;;;7.00;;
8042;SDS011;4064;48.132;11.366;2023-05-29T06:52:33;6.90;;;6.20;;
8042;SDS011;4064;48.132;11.366;2023-05-29T06:54:59;9.33;;;7.90;;
8042;SDS011;4064;48.132;11.366;2023-05-29T06:57:26;8.50;;;6.63;;
8042;SDS011;4064;48.132;11.366;2023-05-29T06:59:52;9.00;;;6.47;;
8042;SDS011;4064;48.132;11.366;2023-05-29T07:02:19;9.90;;;6.53;;
8042;SDS011;4064;48.132;11.366;2023-05-29T07:04:44;9.63;;;6.93;;
8042;SDS011;4064;48.132;11.366;2023-05-29T07:07:10;9.43;;;6.50;;
8042;SDS011;4064;48.132;11.366;2023-05-29T07:09:36;10.20;;;6.27;;
8042;SDS011;4064;48.132;11.366;2023-05-29T07:12:04;10.17;;;7.00;;
8042;SDS011;4064;48.132;11.366;2023-05-29T07:14:32;7.13;;;5.70;;
8042;SDS011;4064;48.132;11.366;2023-05-29T07:16:59;8.90;;;7.20;;
8042;SDS011;4064;48.132;11.366;2023-05-29T07:19:25;8.83;;;6.00;;
8042;SDS011;4064;48.132;11.366;2023-05-29T07:21:51;8.33;;;6.10;;
8042;SDS011;4064;48.132;11.366;2023-05-29T07:24:17;9.83;;;6.20;;
8042;SDS011;4064;48.132;11.366;2023-05-29T07:26:43;7.57;;;6.30;;
8042;SDS011;4064;48.132;11.366;2023-05-29T07:29:10;9.37;;;6.27;;
8042;SDS011;4064;48.132;11.366;2023-05-29T07:31:36;11.23;;;5.77;;
8042;SDS011;4064;48.132;11.366;2023-05-29T07:34:05;10.07;;;6.20;;
8042;SDS011;4064;48.132;11.366;2023-05-29T07:36:31;7.80;;;5.90;;
8042;SDS011;4064;48.132;11.366;2023-05-29T07:38:57;7.33;;;6.03;;
8042;SDS011;4064;48.132;11.366;2023-05-29T07:41:23;9.97;;;5.77;;
8042;SDS011;4064;48.132;11.366;2023-05-29T07:43:51;9.53;;;5.53;;
8042;SDS011;4064;48.132;11.366;2023-05-29T07:46:18;6.70;;;4.80;;
8042;SDS011;4064;48.132;11.366;2023-05-29T07:48:44;6.23;;;5.63;;
8042;SDS011;4064;48.132;11.366;2023-05-29T07:51:13;9.73;;;4.70;;
8042;SDS011;4064;48.132;11.366;2023-05-29T07:53:39;7.63;;;4.80;;
8042;SDS011;4064;48.132;11.366;2023-05-29T07:56:05;7.10;;;5.10;;
8042;SDS011;4064;48.132;11.366;2023-05-29T07:58:31;5.60;;;4.70;;
8042;SDS011;4064;48.132;11.366;2023-05-29T08:00:57;6.33;;;5.13;;
8042;SDS011;4064;48.132;11.366;2023-05-29T08:03:22;6.10;;;5.10;;
8042;SDS011;4064;48.132;11.366;2023-05-29T08:05:48;5.53;;;4.90;;
8042;SDS011;4064;48.132;11.366;2023-05-29T08:08:14;7.30;;;5.63;;
8042;SDS011;4064;48.132;11.366;2023-05-29T08:10:40;8.70;;;6.23;;
8042;SDS011;4064;48.132;11.366;2023-05-29T08:13:06;7.50;;;5.20;;
8042;SDS011;4064;48.132;11.366;2023-05-29T08:15:32;7.70;;;6.00;;
8042;SDS011;4064;48.132;11.366;2023-05-29T08:17:58;7.00;;;5.27;;
8042;SDS011;4064;48.132;11.366;2023-05-29T08:20:24;7.37;;;5.53;;
8042;SDS011;4064;48.132;11.366;2023-05-29T08:22:51;6.90;;;5.70;;
8042;SDS011;4064;48.132;11.366;2023-05-29T08:25:17;8.40;;;5.53;;
8042;SDS011;4064;48.132;11.366;2023-05-29T08:27:43;5.10;;;4.30;;
8042;SDS011;4064;48.132;11.366;2023-05-29T08:30:10;6.10;;;4.43;;
8042;SDS011;4064;48.132;11.366;2023-05-29T08:32:36;7.20;;;4.90;;
8042;SDS011;4064;48.132;11.366;2023-05-29T08:35:02;8.57;;;5.30;;
8042;SDS011;4064;48.132;11.366;2023-05-29T08:37:29;7.50;;;5.30;;
8042;SDS011;4064;48.132;11.366;2023-05-29T08:39:56;7.90;;;5.47;;
8042;SDS011;4064;48.132;11.366;2023-05-29T08:42:26;7.50;;;4.47;;
8042;SDS011;4064;48.132;11.366;2023-05-29T08:44:58;7.57;;;4.80;;
8042;SDS011;4064;48.132;11.366;2023-05-29T08:47:30;6.53;;;4.83;;
8042;SDS011;4064;48.132;11.366;2023-05-29T08:49:58;7.53;;;4.63;;
8042;SDS011;4064;48.132;11.366;2023-05-29T08:52:27;5.93;;;4.73;;
8042;SDS011;4064;48.132;11.366;2023-05-29T08:54:58;6.73;;;4.90;;
8042;SDS011;4064;48.132;11.366;2023-05-29T08:57:28;6.60;;;4.80;;
8042;SDS011;4064;48.132;11.366;2023-05-29T08:59:56;7.83;;;5.00;;
8042;SDS011;4064;48.132;11.366;2023-05-29T09:02:22;6.50;;;5.73;;
8042;SDS011;4064;48.132;11.366;2023-05-29T09:04:48;7.00;;;5.20;;
8042;SDS011;4064;48.132;11.366;2023-05-29T09:07:17;9.27;;;5.17;;
8042;SDS011;4064;48.132;11.366;2023-05-29T09:09:47;9.30;;;5.30;;
8042;SDS011;4064;48.132;11.366;2023-05-29T09:12:14;7.53;;;5.07;;
8042;SDS011;4064;48.132;11.366;2023-05-29T09:14:42;5.80;;;4.90;;
8042;SDS011;4064;48.132;11.366;2023-05-29T09:17:10;6.87;;;5.17;;
8042;SDS011;4064;48.132;11.366;2023-05-29T09:19:38;8.43;;;5.30;;
8042;SDS011;4064;48.132;11.366;2023-05-29T09:22:06;7.83;;;5.60;;
8042;SDS011;4064;48.132;11.366;2023-05-29T09:24:38;7.43;;;4.63;;
8042;SDS011;4064;48.132;11.366;2023-05-29T09:27:05;5.87;;;5.20;;
8042;SDS011;4064;48.132;11.366;2023-05-29T09:29:39;7.37;;;6.20;;
8042;SDS011;4064;48.132;11.366;2023-05-29T09:32:09;6.83;;;5.80;;
8042;SDS011;4064;48.132;11.366;2023-05-29T09:34:36;7.90;;;4.80;;
8042;SDS011;4064;48.132;11.366;2023-05-29T09:37:06;7.07;;;4.90;;
8042;SDS011;4064;48.132;11.366;2023-05-29T09:39:46;7.00;;;4.97;;
8042;SDS011;4064;48.132;11.366;2023-05-29T09:42:13;6.70;;;5.00;;
8042;SDS011;4064;48.132;11.366;2023-05-29T09:44:41;11.83;;;5.67;;
8042;SDS011;4064;48.132;11.366;2023-05-29T09:47:08;5.90;;;4.50;;
8042;SDS011;4064;48.132;11.366;2023-05-29T09:49:41;8.83;;;4.87;;
8042;SDS011;4064;48.132;11.366;2023-05-29T09:52:08;6.33;;;5.30;;
8042;SDS011;4064;48.132;11.366;2023-05-29T09:54:41;6.67;;;4.13;;
8042;SDS011;4064;48.132;11.366;2023-05-29T09:57:10;5.30;;;4.63;;
8042;SDS011;4064;48.132;11.366;2023-05-29T09:59:41;7.03;;;4.23;;
8042;SDS011;4064;48.132;11.366;2023-05-29T10:02:16;6.47;;;4.70;;
8042;SDS011;4064;48.132;11.366;2023-05-29T10:04:43;4.90;;;4.40;;
8042;SDS011;4064;48.132;11.366;2023-05-29T10:07:14;6.03;;;4.10;;
8042;SDS011;4064;48.132;11.366;2023-05-29T10:09:52;6.53;;;4.00;;
8042;SDS011;4064;48.132;11.366;2023-05-29T10:12:25;5.30;;;4.20;;
8042;SDS011;4064;48.132;11.366;2023-05-29T10:14:53;5.43;;;4.53;;
8042;SDS011;4064;48.132;11.366;2023-05-29T10:17:25;5.27;;;4.17;;
8042;SDS011;4064;48.132;11.366;2023-05-29T10:19:54;7.50;;;4.60;;
8042;SDS011;4064;48.132;11.366;2023-05-29T10:22:24;5.90;;;4.20;;
8042;SDS011;4064;48.132;11.366;2023-05-29T10:24:53;4.43;;;3.63;;
8042;SDS011;4064;48.132;11.366;2023-05-29T10:27:23;5.43;;;4.00;;
8042;SDS011;4064;48.132;11.366;2023-05-29T10:29:50;5.20;;;3.73;;
8042;SDS011;4064;48.132;11.366;2023-05-29T10:35:01;5.10;;;4.00;;
8042;SDS011;4064;48.132;11.366;2023-05-29T10:37:49;6.33;;;4.20;;
8042;SDS011;4064;48.132;11.366;2023-05-29T10:40:16;6.63;;;4.23;;
8042;SDS011;4064;48.132;11.366;2023-05-29T10:42:50;6.20;;;4.53;;
8042;SDS011;4064;48.132;11.366;2023-05-29T10:46:04;5.77;;;4.20;;
8042;SDS011;4064;48.132;11.366;2023-05-29T10:50:43;3.97;;;3.50;;
8042;SDS011;4064;48.132;11.366;2023-05-29T10:53:14;5.13;;;3.70;;
8042;SDS011;4064;48.132;11.366;2023-05-29T10:55:51;4.30;;;3.70;;
8042;SDS011;4064;48.132;11.366;2023-05-29T10:58:18;4.93;;;4.00;;
8042;SDS011;4064;48.132;11.366;2023-05-29T11:00:51;5.17;;;3.90;;
8042;SDS011;4064;48.132;11.366;2023-05-29T11:03:31;5.97;;;4.17;;
8042;SDS011;4064;48.132;11.366;2023-05-29T11:06:08;6.67;;;4.67;;
8042;SDS011;4064;48.132;11.366;2023-05-29T11:08:55;6.20;;;4.20;;
8042;SDS011;4064;48.132;11.366;2023-05-29T11:13:54;4.40;;;3.80;;
8042;SDS011;4064;48.132;11.366;2023-05-29T11:18:55;4.87;;;3.37;;
8042;SDS011;4064;48.132;11.366;2023-05-29T11:24:36;4.63;;;3.90;;
8042;SDS011;4064;48.132;11.366;2023-05-29T11:27:02;5.83;;;5.03;;
8042;SDS011;4064;48.132;11.366;2023-05-29T11:29:33;5.47;;;4.40;;
8042;SDS011;4064;48.132;11.366;2023-05-29T11:32:04;5.20;;;4.10;;
8042;SDS011;4064;48.132;11.366;2023-05-29T11:34:33;4.20;;;3.33;;
8042;SDS011;4064;48.132;11.366;2023-05-29T11:37:00;5.27;;;3.77;;
8042;SDS011;4064;48.132;11.366;2023-05-29T11:39:29;5.17;;;3.70;;
8042;SDS011;4064;48.132;11.366;2023-05-29T11:41:56;6.13;;;4.27;;
8042;SDS011;4064;48.132;11.366;2023-05-29T11:44:25;5.53;;;4.57;;
8042;SDS011;4064;48.132;11.366;2023-05-29T11:47:01;9.07;;;4.33;;
8042;SDS011;4064;48.132;11.366;2023-05-29T11:49:38;5.20;;;3.80;;
8042;SDS011;4064;48.132;11.366;2023-05-29T11:52:07;5.43;;;4.20;;
8042;SDS011;4064;48.132;11.366;2023-05-29T11:55:05;5.27;;;4.20;;
8042;SDS011;4064;48.132;11.366;2023-05-29T11:57:32;4.40;;;3.50;;
8042;SDS011;4064;48.132;11.366;2023-05-29T11:59:57;6.10;;;3.70;;
8042;SDS011;4064;48.132;11.366;2023-05-29T12:02:25;4.30;;;3.50;;
8042;SDS011;4064;48.132;11.366;2023-05-29T12:05:02;6.00;;;4.30;;
8042;SDS011;4064;48.132;11.366;2023-05-29T12:07:29;5.90;;;3.83;;
8042;SDS011;4064;48.132;11.366;2023-05-29T12:09:56;4.40;;;3.60;;
8042;SDS011;4064;48.132;11.366;2023-05-29T12:12:25;4.97;;;4.20;;
8042;SDS011;4064;48.132;11.366;2023-05-29T12:14:52;5.83;;;3.80;;
8042;SDS011;4064;48.132;11.366;2023-05-29T12:17:18;4.73;;;4.10;;
8042;SDS011;4064;48.132;11.366;2023-05-29T12:19:46;4.57;;;3.60;;
8042;SDS011;4064;48.132;11.366;2023-05-29T12:22:12;5.87;;;4.97;;
8042;SDS011;4064;48.132;11.366;2023-05-29T12:24:38;5.33;;;3.93;;
8042;SDS011;4064;48.132;11.366;2023-05-29T12:27:04;6.13;;;4.17;;
8042;SDS011;4064;48.132;11.366;2023-05-29T12:29:35;5.10;;;4.20;;
8042;SDS011;4064;48.132;11.366;2023-05-29T12:32:01;4.73;;;3.43;;
8042;SDS011;4064;48.132;11.366;2023-05-29T12:34:27;4.13;;;3.37;;
8042;SDS011;4064;48.132;11.366;2023-05-29T12:37:06;5.80;;;3.93;;
8042;SDS011;4064;48.132;11.366;2023-05-29T12:39:35;4.40;;;3.50;;
8042;SDS011;4064;48.132;11.366;2023-05-29T12:42:01;4.03;;;3.50;;
8042;SDS011;4064;48.132;11.366;2023-05-29T12:44:27;3.73;;;3.33;;
8042;SDS011;4064;48.132;11.366;2023-05-29T12:46:56;3.87;;;3.40;;
8042;SDS011;4064;48.132;11.366;2023-05-29T12:49:22;5.60;;;3.77;;
8042;SDS011;4064;48.132;11.366;2023-05-29T12:51:50;4.63;;;3.70;;
8042;SDS011;4064;48.132;11.366;2023-05-29T12:54:17;5.33;;;3.80;;
8042;SDS011;4064;48.132;11.366;2023-05-29T12:56:43;5.33;;;3.87;;
8042;SDS011;4064;48.132;11.366;2023-05-29T12:59:11;4.57;;;3.80;;
8042;SDS011;4064;48.132;11.366;2023-05-29T13:01:37;5.20;;;3.50;;
8042;SDS011;4064;48.132;11.366;2023-05-29T13:04:04;5.70;;;3.33;;
8042;SDS011;4064;48.132;11.366;2023-05-29T13:06:42;3.80;;;3.33;;
8042;SDS011;4064;48.132;11.366;2023-05-29T13:09:08;5.23;;;3.87;;
8042;SDS011;4064;48.132;11.366;2023-05-29T13:11:34;6.73;;;3.60;;
8042;SDS011;4064;48.132;11.366;2023-05-29T13:14:00;3.43;;;3.10;;
8042;SDS011;4064;48.132;11.366;2023-05-29T13:16:25;4.20;;;2.97;;
8042;SDS011;4064;48.132;11.366;2023-05-29T13:18:52;5.80;;;4.17;;
8042;SDS011;4064;48.132;11.366;2023-05-29T13:21:18;3.97;;;3.60;;
8042;SDS011;4064;48.132;11.366;2023-05-29T13:23:44;4.70;;;4.30;;
8042;SDS011;4064;48.132;11.366;2023-05-29T13:26:10;6.37;;;3.93;;
8042;SDS011;4064;48.132;11.366;2023-05-29T13:28:36;4.60;;;3.90;;
8042;SDS011;4064;48.132;11.366;2023-05-29T13:31:01;5.37;;;4.27;;
8042;SDS011;4064;48.132;11.366;2023-05-29T13:33:29;4.10;;;3.37;;
8042;SDS011;4064;48.132;11.366;2023-05-29T13:35:54;5.27;;;4.27;;
8042;SDS011;4064;48.132;11.366;2023-05-29T13:38:20;5.50;;;3.13;;
8042;SDS011;4064;48.132;11.366;2023-05-29T13:40:46;4.80;;;3.57;;
8042;SDS011;4064;48.132;11.366;2023-05-29T13:43:12;4.63;;;4.23;;
8042;SDS011;4064;48.132;11.366;2023-05-29T13:45:37;4.77;;;3.93;;
8042;SDS011;4064;48.132;11.366;2023-05-29T13:48:05;6.30;;;4.00;;
8042;SDS011;4064;48.132;11.366;2023-05-29T13:50:32;4.93;;;3.70;;
8042;SDS011;4064;48.132;11.366;2023-05-29T13:52:58;4.93;;;3.70;;
8042;SDS011;4064;48.132;11.366;2023-05-29T13:55:27;5.00;;;3.70;;
8042;SDS011;4064;48.132;11.366;2023-05-29T13:57:53;5.30;;;3.60;;
8042;SDS011;4064;48.132;11.366;2023-05-29T14:00:23;5.63;;;3.37;;
8042;SDS011;4064;48.132;11.366;2023-05-29T14:02:50;4.70;;;3.50;;
8042;SDS011;4064;48.132;11.366;2023-05-29T14:05:17;5.63;;;5.07;;
8042;SDS011;4064;48.132;11.366;2023-05-29T14:07:43;4.73;;;3.90;;
8042;SDS011;4064;48.132;11.366;2023-05-29T14:10:10;4.53;;;4.10;;
8042;SDS011;4064;48.132;11.366;2023-05-29T14:12:36;5.50;;;4.13;;
8042;SDS011;4064;48.132;11.366;2023-05-29T14:15:02;6.60;;;3.63;;
8042;SDS011;4064;48.132;11.366;2023-05-29T14:17:28;5.00;;;3.63;;
8042;SDS011;4064;48.132;11.366;2023-05-29T14:19:54;5.63;;;4.07;;
8042;SDS011;4064;48.132;11.366;2023-05-29T14:22:20;4.87;;;3.80;;
8042;SDS011;4064;48.132;11.366;2023-05-29T14:24:46;6.70;;;3.70;;
8042;SDS011;4064;48.132;11.366;2023-05-29T14:27:12;5.10;;;3.70;;
8042;SDS011;4064;48.132;11.366;2023-05-29T14:29:37;6.03;;;3.73;;
8042;SDS011;4064;48.132;11.366;2023-05-29T14:32:03;5.17;;;3.60;;
8042;SDS011;4064;48.132;11.366;2023-05-29T14:34:29;4.60;;;3.40;;
8042;SDS011;4064;48.132;11.366;2023-05-29T14:36:55;3.83;;;3.43;;
8042;SDS011;4064;48.132;11.366;2023-05-29T14:39:21;4.23;;;3.00;;
8042;SDS011;4064;48.132;11.366;2023-05-29T14:41:47;4.30;;;3.90;;
8042;SDS011;4064;48.132;11.366;2023-05-29T14:44:13;3.83;;;3.40;;
8042;SDS011;4064;48.132;11.366;2023-05-29T14:46:39;5.77;;;3.80;;
8042;SDS011;4064;48.132;11.366;2023-05-29T14:49:05;6.43;;;4.30;;
8042;SDS011;4064;48.132;11.366;2023-05-29T14:51:31;6.30;;;4.77;;
8042;SDS011;4064;48.132;11.366;2023-05-29T14:53:58;4.20;;;3.80;;
8042;SDS011;4064;48.132;11.366;2023-05-29T14:56:24;5.03;;;4.10;;
8042;SDS011;4064;48.132;11.366;2023-05-29T14:58:50;3.43;;;3.07;;
8042;SDS011;4064;48.132;11.366;2023-05-29T15:01:16;4.43;;;3.63;;
8042;SDS011;4064;48.132;11.366;2023-05-29T15:03:42;4.20;;;3.80;;
8042;SDS011;4064;48.132;11.366;2023-05-29T15:06:09;6.17;;;3.77;;
8042;SDS011;4064;48.132;11.366;2023-05-29T15:08:36;7.57;;;3.63;;
8042;SDS011;4064;48.132;11.366;2023-05-29T15:11:02;5.93;;;4.07;;
8042;SDS011;4064;48.132;11.366;2023-05-29T15:13:28;7.23;;;5.70;;
8042;SDS011;4064;48.132;11.366;2023-05-29T15:15:55;5.80;;;4.43;;
8042;SDS011;4064;48.132;11.366;2023-05-29T15:18:28;5.90;;;4.20;;
8042;SDS011;4064;48.132;11.366;2023-05-29T15:20:54;4.70;;;3.60;;